Main page
METAR-TAF:

METAR-TAF

Airports :

Al Najaf International Airport

Najaf, Iraq

latitude: 31-59-23N, longitude: 44-24-15E, elevation: 31 m

Current weather observation

The report was made 1 hour and 2 minutes ago, at 04:00 UTC
Wind 10 kt from the Northwest
Temperature 16°C
Humidity 29%
Pressure 1020 hPa
Visibility: 7000 m
Scattered clouds at a height of 4000 ft

METAR: ORNI 090400Z 32010KT 7000 SCT040 16/M02 Q1020 NOSIG

Time: 08:02 (05:02 UTC)

Forecast

The report was made 7 hours and 2 minutes ago, at 22:00 UTC
Forecast valid from 09 at 00 UTC to 09 at 24 UTC
Wind 9 kt from the West/Northwest
Visibility: 7000 m

TAF: ORNI 082200Z 0900/0924 30009KT 7000 NSC

Weather observations and forecasts of more than 4000 airports (METAR and TAF reports).

The available stations are represented by yellow and red dots on the map.

Hover mouse over dot to see the name of the station.

Then click to see weather observations and forecasts.

To change the map : click on the green buttons with a black cross to zoom in, on the green button with a dash to zoom out, or on the green arrows for adjacent maps.


METAR-TAF: